This is the latest recevied weather packets stored in our database for station/object KB1FFS. If no packets are shown the sender has not sent any weather packets the latest 10 day(s).
| Time | Temp. | Humidity | Pressure | Rain* | Wind** | Luminosity | Snow |
|---|---|---|---|---|---|---|---|
| 1777920357 | 28.33° C | 49% | 1010.7 hPa | 0 mm | - | 936 W/m² | - |
| 1777920052 | 28.89° C | 48% | 1011 hPa | 0 mm | - | 919 W/m² | - |
| 1777919749 | 28.33° C | 50% | 1010.9 hPa | 0 mm | - | 937 W/m² | - |
| 1777919448 | 28.33° C | 48% | 1011.2 hPa | 0 mm | - | 894 W/m² | - |
| 1777919144 | 28.33° C | 50% | 1011.2 hPa | 0 mm | - | 964 W/m² | - |
| 1777918842 | 27.78° C | 51% | 1011.2 hPa | 0 mm | - | 930 W/m² | - |
| 1777918539 | 27.78° C | 52% | 1011.2 hPa | 0 mm | - | 865 W/m² | - |
| 1777918237 | 27.78° C | 50% | 1011.4 hPa | 0 mm | - | 813 W/m² | - |
| 1777917936 | 27.78° C | 50% | 1011.5 hPa | 0 mm | - | 879 W/m² | - |
| 1777917634 | 27.78° C | 50% | 1011.5 hPa | 0 mm | - | 909 W/m² | - |
| 1777917331 | 26.67° C | 52% | 1011.5 hPa | 0 mm | - | 848 W/m² | - |
| 1777917028 | 26.67° C | 51% | 1011.7 hPa | 0 mm | - | 897 W/m² | - |
| 1777916726 | 27.22° C | 51% | 1011.9 hPa | 0 mm | - | 910 W/m² | - |
| 1777916422 | 26.67° C | 51% | 1012.2 hPa | 0 mm | - | 821 W/m² | - |
| 1777916119 | 26.67° C | 53% | 1012 hPa | 0 mm | - | 919 W/m² | - |
| 1777915817 | 26.11° C | 53% | 1012.2 hPa | 0 mm | - | 883 W/m² | - |
| 1777915513 | 26.11° C | 52% | 1012.3 hPa | 0 mm | - | 901 W/m² | - |
| 1777915209 | 26.11° C | 53% | 1012.5 hPa | 0 mm | - | 596 W/m² | - |
| 1777914906 | 26.67° C | 51% | 1012.4 hPa | 0 mm | - | 623 W/m² | - |
| 1777914603 | 26.11° C | 52% | 1012.4 hPa | 0 mm | - | 884 W/m² | - |
| 1777914299 | 26.11° C | 51% | 1012.5 hPa | 0 mm | - | 797 W/m² | - |
| 1777913996 | 26.11° C | 52% | 1012.7 hPa | 0 mm | - | 801 W/m² | - |
| 1777913692 | 25.56° C | 55% | 1012.7 hPa | 0 mm | - | 777 W/m² | - |
| 1777913389 | 25° C | 54% | 1012.9 hPa | 0 mm | - | 832 W/m² | - |
| 1777913086 | 25° C | 54% | 1013.1 hPa | 0 mm | - | 741 W/m² | - |
* Rain latest hour (hover to see other rain measurements)
** Current wind speed in m/s (hover to see current wind gust speed)